createdAt,value
2023-01-06T00:00:36.416Z,11.50
2023-01-06T00:03:03.051Z,12.73
2023-01-06T00:05:29.862Z,12.10
2023-01-06T00:07:56.808Z,13.30
2023-01-06T00:10:23.703Z,13.07
2023-01-06T00:12:50.524Z,13.10
2023-01-06T00:15:17.933Z,13.83
2023-01-06T00:17:44.853Z,13.63
2023-01-06T00:20:12.123Z,14.43
2023-01-06T00:22:42.125Z,14.63
2023-01-06T00:25:12.126Z,13.77
2023-01-06T00:27:39.481Z,14.17
2023-01-06T00:30:07.074Z,13.63
2023-01-06T00:32:33.679Z,12.33
2023-01-06T00:35:00.265Z,12.07
2023-01-06T00:37:26.697Z,11.80
2023-01-06T00:39:53.163Z,12.37
2023-01-06T00:42:19.616Z,10.97
2023-01-06T00:44:46.073Z,11.57
2023-01-06T00:47:12.691Z,11.13
2023-01-06T00:49:39.435Z,11.63
2023-01-06T00:52:06.310Z,10.60
2023-01-06T00:54:32.803Z,10.20
2023-01-06T00:56:59.256Z,10.10
2023-01-06T00:59:26.550Z,10.53
2023-01-06T01:01:56.327Z,10.17
2023-01-06T01:04:24.021Z,9.97
2023-01-06T01:06:51.333Z,9.23
2023-01-06T01:09:22.055Z,9.53
2023-01-06T01:12:07.759Z,9.33
2023-01-06T01:14:34.750Z,9.00
2023-01-06T01:17:01.336Z,8.07
2023-01-06T01:19:28.598Z,8.20
2023-01-06T01:21:55.376Z,8.37
2023-01-06T01:24:22.189Z,8.50
2023-01-06T01:26:48.719Z,7.80
2023-01-06T01:29:16.585Z,8.43
2023-01-06T01:31:43.568Z,8.50
2023-01-06T01:34:11.880Z,7.13
2023-01-06T01:36:40.269Z,9.00
2023-01-06T01:39:06.741Z,8.43
2023-01-06T01:41:33.214Z,9.10
2023-01-06T01:44:02.198Z,8.63
2023-01-06T01:46:33.467Z,8.70
2023-01-06T01:49:18.043Z,9.23
2023-01-06T01:51:47.171Z,8.90
2023-01-06T01:54:30.442Z,9.63
2023-01-06T01:57:19.690Z,9.70
2023-01-06T01:59:46.391Z,9.67
2023-01-06T02:02:15.453Z,8.97
2023-01-06T02:04:44.209Z,8.77
2023-01-06T02:07:11.295Z,9.13
2023-01-06T02:09:54.470Z,9.37
2023-01-06T02:12:20.944Z,9.03
2023-01-06T02:14:47.435Z,9.23
2023-01-06T02:17:24.314Z,8.87
2023-01-06T02:20:19.652Z,9.50
2023-01-06T02:23:11.127Z,8.70
2023-01-06T02:25:58.900Z,8.40
2023-01-06T02:28:50.568Z,7.70
2023-01-06T02:31:35.713Z,7.97
2023-01-06T02:34:11.349Z,7.20
2023-01-06T02:36:46.226Z,7.60
2023-01-06T02:39:21.825Z,7.47
2023-01-06T02:42:05.409Z,7.03
2023-01-06T02:44:32.757Z,6.53
2023-01-06T02:47:12.060Z,7.33
2023-01-06T02:49:47.802Z,6.20
2023-01-06T02:52:24.563Z,6.47
2023-01-06T02:55:03.078Z,6.43
2023-01-06T02:57:36.856Z,6.67
2023-01-06T03:00:15.050Z,6.50
2023-01-06T03:02:45.743Z,6.70
2023-01-06T03:05:15.117Z,7.47
2023-01-06T03:07:43.523Z,6.43
2023-01-06T03:10:10.491Z,7.53
2023-01-06T03:12:43.143Z,7.13
2023-01-06T03:15:10.186Z,8.40
2023-01-06T03:17:36.778Z,7.90
2023-01-06T03:20:03.682Z,8.77
2023-01-06T03:22:30.367Z,8.57
2023-01-06T03:24:56.847Z,8.87
2023-01-06T03:27:25.891Z,8.40
2023-01-06T03:29:52.433Z,9.23
2023-01-06T03:32:34.444Z,10.67
2023-01-06T03:35:21.961Z,10.43
2023-01-06T03:37:51.697Z,10.90
2023-01-06T03:40:21.131Z,10.83
2023-01-06T03:43:08.285Z,12.00
2023-01-06T03:45:56.449Z,11.50
2023-01-06T03:48:45.412Z,12.37
2023-01-06T03:51:17.982Z,13.23
2023-01-06T03:54:01.662Z,11.93
2023-01-06T03:56:35.142Z,12.97
2023-01-06T03:59:05.957Z,13.57
2023-01-06T04:01:33.053Z,12.87
2023-01-06T04:04:01.566Z,12.70
2023-01-06T04:06:28.210Z,13.57
2023-01-06T04:08:54.714Z,13.10
2023-01-06T04:11:39.847Z,12.47
2023-01-06T04:14:06.319Z,13.57
2023-01-06T04:16:32.862Z,13.43
2023-01-06T04:18:59.351Z,12.97
2023-01-06T04:21:25.836Z,12.10
2023-01-06T04:23:52.265Z,12.07
2023-01-06T04:26:18.833Z,12.67
2023-01-06T04:28:46.042Z,13.43
2023-01-06T04:31:12.637Z,15.27
2023-01-06T04:33:39.121Z,13.87
2023-01-06T04:36:06.041Z,13.47
2023-01-06T04:38:32.492Z,14.87
2023-01-06T04:40:59.001Z,14.80
2023-01-06T04:43:25.519Z,15.03
2023-01-06T04:45:52.024Z,16.13
2023-01-06T04:48:18.524Z,18.13
2023-01-06T04:50:45.059Z,17.63
2023-01-06T04:53:12.381Z,18.83
2023-01-06T04:55:39.806Z,19.27
2023-01-06T04:58:06.390Z,19.70
2023-01-06T05:00:32.896Z,20.60
2023-01-06T05:02:59.365Z,18.90
2023-01-06T05:05:25.873Z,22.47
2023-01-06T05:07:55.439Z,24.33
2023-01-06T05:10:22.979Z,22.30
2023-01-06T05:12:49.411Z,23.77
2023-01-06T05:15:15.998Z,26.40
2023-01-06T05:17:42.475Z,26.57
2023-01-06T05:20:09.537Z,28.17
2023-01-06T05:22:36.001Z,28.37
2023-01-06T05:25:02.637Z,28.97
2023-01-06T05:27:29.178Z,28.87
2023-01-06T05:29:55.625Z,27.73
2023-01-06T05:32:22.125Z,28.47
2023-01-06T05:34:48.563Z,31.20
2023-01-06T05:37:15.009Z,30.77
2023-01-06T05:39:41.444Z,32.73
2023-01-06T05:42:07.923Z,36.87
2023-01-06T05:44:34.379Z,33.47
2023-01-06T05:47:00.873Z,33.17
2023-01-06T05:49:27.321Z,33.73
2023-01-06T05:51:53.796Z,34.77
2023-01-06T05:54:21.349Z,33.17
2023-01-06T05:56:47.806Z,35.23
2023-01-06T05:59:14.365Z,36.83
2023-01-06T06:01:40.852Z,35.73
2023-01-06T06:04:07.514Z,35.30
2023-01-06T06:06:34.093Z,35.07
2023-01-06T06:09:00.773Z,36.90
2023-01-06T06:11:27.277Z,35.33
2023-01-06T06:13:55.898Z,32.67
2023-01-06T06:16:25.259Z,31.27
2023-01-06T06:18:53.795Z,31.77
2023-01-06T06:21:22.893Z,31.13
2023-01-06T06:23:49.769Z,30.73
2023-01-06T06:26:16.306Z,30.57
2023-01-06T06:28:42.863Z,32.93
2023-01-06T06:31:12.131Z,30.40
2023-01-06T06:33:39.359Z,29.17
2023-01-06T06:36:06.969Z,27.93
2023-01-06T06:38:33.444Z,29.67
2023-01-06T06:40:59.907Z,30.67
2023-01-06T06:43:26.434Z,26.50
2023-01-06T06:45:52.922Z,28.70
2023-01-06T06:48:19.446Z,25.90
2023-01-06T06:50:45.892Z,26.40
2023-01-06T06:53:12.376Z,26.60
2023-01-06T06:55:38.914Z,28.77
2023-01-06T06:58:05.397Z,28.57
2023-01-06T07:00:31.883Z,28.87
2023-01-06T07:02:58.353Z,28.23
2023-01-06T07:05:25.736Z,27.67
2023-01-06T07:07:52.378Z,27.80
2023-01-06T07:10:19.341Z,27.47
2023-01-06T07:12:45.856Z,28.07
2023-01-06T07:15:12.312Z,25.83
2023-01-06T07:17:39.645Z,28.33
2023-01-06T07:20:06.415Z,28.20
2023-01-06T07:22:32.909Z,29.23
2023-01-06T07:24:59.337Z,30.17
2023-01-06T07:27:25.860Z,29.63
2023-01-06T07:29:52.343Z,30.03
2023-01-06T07:32:18.835Z,28.93
2023-01-06T07:34:45.345Z,28.97
2023-01-06T07:37:11.816Z,28.77
2023-01-06T07:39:38.248Z,28.67
2023-01-06T07:42:04.769Z,30.77
2023-01-06T07:44:31.248Z,32.47
2023-01-06T07:46:57.746Z,31.07
2023-01-06T07:49:24.185Z,29.47
2023-01-06T07:51:50.660Z,28.27
2023-01-06T07:54:17.312Z,28.40
2023-01-06T07:56:44.167Z,31.63
2023-01-06T07:59:11.089Z,30.57
2023-01-06T08:01:37.655Z,29.97
2023-01-06T08:04:04.459Z,28.10
2023-01-06T08:06:31.031Z,30.13
2023-01-06T08:08:57.524Z,33.30
2023-01-06T08:11:24.022Z,32.20
2023-01-06T08:13:50.494Z,33.80
2023-01-06T08:16:17.069Z,36.17
2023-01-06T08:18:43.622Z,28.80
2023-01-06T08:21:11.458Z,27.67
2023-01-06T08:23:38.485Z,32.10
2023-01-06T08:26:07.384Z,29.80
2023-01-06T08:28:33.994Z,30.60
2023-01-06T08:31:00.601Z,27.27
2023-01-06T08:33:27.478Z,30.90
2023-01-06T08:36:01.465Z,25.90
2023-01-06T08:38:29.742Z,25.37
2023-01-06T08:40:57.129Z,24.97
2023-01-06T08:43:24.430Z,25.10
2023-01-06T08:45:51.192Z,23.30
2023-01-06T08:48:17.858Z,21.37
2023-01-06T08:50:44.520Z,21.80
2023-01-06T08:53:11.721Z,23.47
2023-01-06T08:55:39.615Z,22.57
2023-01-06T08:58:07.184Z,24.97
2023-01-06T09:00:33.875Z,21.77
2023-01-06T09:03:00.492Z,21.60
2023-01-06T09:05:26.924Z,21.40
2023-01-06T09:07:54.910Z,20.63
2023-01-06T09:10:21.688Z,19.80
2023-01-06T09:12:48.563Z,19.73
2023-01-06T09:15:15.138Z,19.80
2023-01-06T09:17:41.658Z,19.43
2023-01-06T09:20:08.794Z,16.47
2023-01-06T09:22:35.358Z,18.33
2023-01-06T09:25:01.909Z,16.93
2023-01-06T09:27:28.383Z,16.50
2023-01-06T09:29:54.829Z,15.07
2023-01-06T09:32:21.363Z,13.00
2023-01-06T09:34:47.796Z,14.57
2023-01-06T09:37:14.264Z,12.53
2023-01-06T09:39:41.431Z,12.97
2023-01-06T09:42:11.023Z,14.70
2023-01-06T09:44:46.140Z,13.37
2023-01-06T09:47:14.292Z,12.30
2023-01-06T09:49:44.279Z,12.83
2023-01-06T09:52:18.638Z,12.30
2023-01-06T09:54:55.503Z,9.70
2023-01-06T09:57:41.219Z,8.60
2023-01-06T10:00:37.287Z,8.80
2023-01-06T10:03:04.095Z,7.30
2023-01-06T10:05:40.159Z,6.30
2023-01-06T10:08:15.977Z,5.67
2023-01-06T10:11:00.085Z,5.13
2023-01-06T10:13:47.802Z,3.30
2023-01-06T10:16:28.977Z,2.97
2023-01-06T10:19:03.065Z,2.77
2023-01-06T10:21:35.139Z,2.63
2023-01-06T10:24:07.844Z,2.23
2023-01-06T10:26:51.600Z,1.73
2023-01-06T10:29:20.279Z,1.50
2023-01-06T10:31:48.641Z,1.63
2023-01-06T10:34:18.355Z,1.50
2023-01-06T10:36:46.976Z,1.63
2023-01-06T10:39:16.649Z,1.70
2023-01-06T10:41:52.488Z,2.40
2023-01-06T10:44:19.385Z,2.40
2023-01-06T10:46:47.691Z,2.40
2023-01-06T10:49:22.165Z,1.90
2023-01-06T10:52:02.799Z,2.13
2023-01-06T10:54:30.115Z,2.03
2023-01-06T10:57:02.525Z,1.97
2023-01-06T10:59:29.508Z,2.03
2023-01-06T11:01:59.947Z,2.00
2023-01-06T11:04:28.264Z,2.10
2023-01-06T11:06:58.473Z,2.03
2023-01-06T11:09:39.715Z,1.83
2023-01-06T11:12:13.040Z,1.90
2023-01-06T11:14:39.802Z,1.83
2023-01-06T11:17:14.731Z,1.90
2023-01-06T11:19:43.680Z,2.17
2023-01-06T11:22:37.271Z,2.03
2023-01-06T11:25:33.582Z,2.13
2023-01-06T11:28:09.259Z,1.93
2023-01-06T11:30:54.965Z,2.20
2023-01-06T11:33:24.785Z,2.83
2023-01-06T11:35:51.459Z,2.30
2023-01-06T11:38:19.557Z,2.77
2023-01-06T11:40:47.751Z,2.97
2023-01-06T11:43:16.710Z,2.70
2023-01-06T11:45:49.751Z,2.80
2023-01-06T11:48:18.987Z,2.30
2023-01-06T11:50:57.672Z,2.50
2023-01-06T11:53:27.034Z,2.33
2023-01-06T11:56:09.603Z,2.83
2023-01-06T11:59:03.473Z,2.83
2023-01-06T12:01:33.258Z,2.27
2023-01-06T12:04:32.080Z,2.77
2023-01-06T12:07:22.402Z,2.33
2023-01-06T12:09:49.882Z,2.70
2023-01-06T12:12:22.109Z,3.10
2023-01-06T12:14:48.710Z,3.30
2023-01-06T12:17:21.514Z,3.00
2023-01-06T12:20:06.685Z,2.40
2023-01-06T12:22:53.488Z,2.77
2023-01-06T12:25:24.324Z,2.83
2023-01-06T12:27:54.455Z,3.00
2023-01-06T12:30:33.631Z,2.87
2023-01-06T12:33:12.872Z,2.93
2023-01-06T12:35:41.079Z,2.83
2023-01-06T12:38:46.712Z,3.17
2023-01-06T12:41:19.193Z,3.80
2023-01-06T12:44:13.895Z,3.63
2023-01-06T12:46:50.324Z,3.50
2023-01-06T12:49:22.434Z,3.00
2023-01-06T12:51:56.449Z,2.90
2023-01-06T12:54:25.895Z,3.20
2023-01-06T12:57:01.551Z,3.43
2023-01-06T12:59:50.755Z,2.70
2023-01-06T13:02:26.306Z,2.83
2023-01-06T13:05:02.464Z,3.90
2023-01-06T13:07:55.116Z,3.23
2023-01-06T13:10:38.014Z,3.27
2023-01-06T13:13:13.609Z,3.37
2023-01-06T13:15:42.103Z,2.77
2023-01-06T13:18:32.778Z,3.40
2023-01-06T13:21:06.924Z,2.80
2023-01-06T13:23:58.205Z,3.03
2023-01-06T13:26:35.865Z,2.80
2023-01-06T13:29:11.377Z,2.70
2023-01-06T13:32:15.215Z,2.80
2023-01-06T13:35:04.586Z,3.03
2023-01-06T13:37:50.752Z,3.30
2023-01-06T13:40:27.089Z,2.67
2023-01-06T13:43:04.070Z,2.90
2023-01-06T13:45:33.593Z,2.90
2023-01-06T13:48:00.901Z,3.53
2023-01-06T13:50:28.767Z,2.77
2023-01-06T13:52:55.484Z,2.50
2023-01-06T13:55:26.375Z,3.10
2023-01-06T13:57:52.830Z,3.07
2023-01-06T14:00:20.683Z,2.83
2023-01-06T14:02:50.789Z,2.50
2023-01-06T14:05:20.090Z,2.57
2023-01-06T14:07:54.583Z,2.80
2023-01-06T14:10:35.198Z,2.83
2023-01-06T14:13:05.119Z,2.67
2023-01-06T14:15:33.212Z,3.20
2023-01-06T14:18:00.858Z,2.27
2023-01-06T14:20:30.940Z,2.63
2023-01-06T14:23:03.034Z,3.07
2023-01-06T14:25:29.940Z,3.20
2023-01-06T14:27:59.357Z,2.40
2023-01-06T14:30:31.580Z,2.70
2023-01-06T14:32:59.762Z,2.70
2023-01-06T14:35:29.940Z,2.53
2023-01-06T14:38:07.119Z,3.10
2023-01-06T14:40:39.889Z,2.90
2023-01-06T14:43:40.150Z,3.10
2023-01-06T14:46:22.566Z,2.83
2023-01-06T14:48:54.006Z,2.73
2023-01-06T14:51:21.750Z,2.90
2023-01-06T14:53:53.201Z,2.53
2023-01-06T14:56:21.943Z,2.77
2023-01-06T14:58:48.419Z,2.90
2023-01-06T15:01:26.869Z,2.50
2023-01-06T15:04:01.785Z,2.57
2023-01-06T15:06:29.752Z,3.23
2023-01-06T15:09:11.379Z,2.90
2023-01-06T15:11:41.801Z,3.23
2023-01-06T15:14:25.607Z,2.93
2023-01-06T15:16:52.635Z,3.07
2023-01-06T15:19:19.140Z,2.90
2023-01-06T15:21:47.522Z,3.20
2023-01-06T15:24:21.474Z,2.50
2023-01-06T15:26:49.757Z,2.87
2023-01-06T15:29:18.730Z,2.77
2023-01-06T15:31:46.408Z,2.97
2023-01-06T15:34:17.144Z,2.97
2023-01-06T15:36:45.500Z,3.10
2023-01-06T15:39:15.132Z,2.30
2023-01-06T15:41:42.361Z,2.87
2023-01-06T15:44:24.523Z,2.50
2023-01-06T15:46:55.607Z,3.43
2023-01-06T15:49:34.690Z,3.27
2023-01-06T15:52:17.695Z,2.90
2023-01-06T15:54:45.337Z,3.33
2023-01-06T15:57:16.698Z,3.03
2023-01-06T15:59:56.591Z,3.00
2023-01-06T16:02:25.573Z,3.57
2023-01-06T16:04:52.347Z,2.90
2023-01-06T16:07:34.734Z,3.40
2023-01-06T16:10:01.381Z,3.53
2023-01-06T16:12:28.092Z,3.57
2023-01-06T16:14:54.631Z,4.83
2023-01-06T16:17:28.546Z,3.23
2023-01-06T16:20:08.063Z,2.73
2023-01-06T16:22:40.738Z,3.17
2023-01-06T16:25:27.654Z,3.63
2023-01-06T16:27:56.562Z,3.27
2023-01-06T16:30:36.720Z,4.43
2023-01-06T16:33:04.012Z,4.40
2023-01-06T16:35:32.921Z,6.17
2023-01-06T16:38:00.000Z,4.47
2023-01-06T16:40:28.090Z,4.17
2023-01-06T16:43:00.430Z,3.73
2023-01-06T16:45:39.626Z,3.70
2023-01-06T16:48:06.423Z,4.17
2023-01-06T16:50:40.750Z,4.00
2023-01-06T16:53:10.305Z,3.77
2023-01-06T16:55:37.982Z,3.23
2023-01-06T16:58:19.157Z,5.00
2023-01-06T17:00:51.995Z,4.07
2023-01-06T17:03:24.506Z,3.20
2023-01-06T17:05:52.155Z,4.03
2023-01-06T17:08:28.435Z,3.43
2023-01-06T17:10:55.230Z,3.73
2023-01-06T17:13:36.956Z,3.20
2023-01-06T17:16:09.589Z,5.97
2023-01-06T17:18:40.858Z,3.80
2023-01-06T17:21:16.939Z,4.40
2023-01-06T17:23:46.889Z,3.43
2023-01-06T17:26:19.347Z,3.90
2023-01-06T17:28:47.007Z,3.80
2023-01-06T17:31:15.762Z,3.17
2023-01-06T17:33:43.217Z,3.40
2023-01-06T17:36:39.932Z,3.43
2023-01-06T17:39:17.209Z,3.40
2023-01-06T17:41:43.740Z,3.70
2023-01-06T17:44:17.584Z,3.60
2023-01-06T17:46:44.525Z,3.47
2023-01-06T17:49:31.249Z,4.13
2023-01-06T17:51:57.918Z,3.20
2023-01-06T17:54:44.695Z,3.90
2023-01-06T17:57:20.309Z,3.77
2023-01-06T17:59:51.208Z,4.37
2023-01-06T18:02:39.683Z,4.53
2023-01-06T18:05:26.123Z,4.20
2023-01-06T18:08:07.984Z,3.47
2023-01-06T18:10:42.374Z,4.00
2023-01-06T18:13:19.439Z,4.90
2023-01-06T18:15:48.343Z,4.10
2023-01-06T18:18:36.702Z,4.77
2023-01-06T18:21:21.221Z,3.77
2023-01-06T18:23:50.763Z,4.27
2023-01-06T18:26:26.624Z,3.90
2023-01-06T18:28:57.703Z,4.13
2023-01-06T18:31:24.186Z,5.87
2023-01-06T18:33:51.272Z,6.40
2023-01-06T18:36:17.798Z,6.40
2023-01-06T18:38:45.240Z,4.30
2023-01-06T18:41:12.353Z,3.70
2023-01-06T18:43:39.887Z,3.43
2023-01-06T18:46:17.182Z,4.10
2023-01-06T18:48:43.930Z,3.40
2023-01-06T18:51:19.522Z,3.83
2023-01-06T18:53:47.399Z,4.13
2023-01-06T18:56:23.509Z,3.47
2023-01-06T18:58:54.942Z,4.87
2023-01-06T19:01:46.083Z,3.90
2023-01-06T19:04:18.837Z,3.40
2023-01-06T19:06:51.333Z,4.60
2023-01-06T19:09:36.682Z,3.87
2023-01-06T19:12:09.204Z,3.43
2023-01-06T19:14:38.867Z,6.23
2023-01-06T19:17:30.086Z,3.87
2023-01-06T19:20:00.284Z,4.30
2023-01-06T19:22:29.063Z,4.00
2023-01-06T19:24:59.974Z,4.47
2023-01-06T19:27:38.205Z,4.30
2023-01-06T19:30:27.852Z,5.17
2023-01-06T19:32:54.381Z,4.97
2023-01-06T19:35:29.480Z,4.40
2023-01-06T19:38:09.753Z,4.83
2023-01-06T19:40:41.736Z,3.83
2023-01-06T19:43:21.660Z,4.03
2023-01-06T19:45:48.269Z,4.50
2023-01-06T19:48:18.968Z,3.80
2023-01-06T19:50:45.427Z,3.80
2023-01-06T19:53:44.963Z,3.93
2023-01-06T19:56:20.629Z,4.10
2023-01-06T19:58:52.077Z,4.10
2023-01-06T20:01:19.196Z,4.10
2023-01-06T20:03:46.755Z,4.30
2023-01-06T20:06:14.598Z,4.50
2023-01-06T20:08:44.004Z,4.13
2023-01-06T20:11:11.283Z,4.30
2023-01-06T20:13:37.880Z,3.93
2023-01-06T20:16:05.304Z,4.63
2023-01-06T20:18:31.790Z,4.70
2023-01-06T20:20:58.953Z,6.50
2023-01-06T20:23:25.589Z,8.10
2023-01-06T20:25:52.198Z,7.47
2023-01-06T20:28:18.777Z,10.47
2023-01-06T20:30:46.428Z,10.63
2023-01-06T20:33:13.290Z,11.53
2023-01-06T20:35:39.972Z,7.90
2023-01-06T20:38:06.537Z,8.57
2023-01-06T20:40:33.172Z,7.50
2023-01-06T20:42:59.699Z,6.40
2023-01-06T20:45:26.247Z,9.90
2023-01-06T20:47:52.723Z,9.87
2023-01-06T20:50:21.010Z,8.50
2023-01-06T20:52:47.609Z,9.27
2023-01-06T20:55:14.444Z,11.57
2023-01-06T20:57:40.970Z,10.47
2023-01-06T21:00:09.621Z,8.93
2023-01-06T21:02:36.243Z,9.57
2023-01-06T21:05:03.134Z,9.27
2023-01-06T21:07:29.587Z,9.50
2023-01-06T21:09:56.951Z,8.33
2023-01-06T21:12:23.436Z,5.43
2023-01-06T21:14:49.923Z,4.30
2023-01-06T21:17:16.439Z,4.73
2023-01-06T21:19:43.053Z,4.47
2023-01-06T21:22:09.537Z,4.23
2023-01-06T21:24:36.053Z,4.43
2023-01-06T21:27:02.537Z,4.37
2023-01-06T21:29:29.091Z,4.13
2023-01-06T21:31:55.605Z,4.63
2023-01-06T21:34:22.142Z,4.60
2023-01-06T21:36:48.652Z,4.80
2023-01-06T21:39:16.431Z,5.20
2023-01-06T21:42:01.757Z,4.27
2023-01-06T21:44:28.242Z,4.53
2023-01-06T21:46:54.677Z,4.40
2023-01-06T21:49:21.122Z,4.80
2023-01-06T21:51:48.890Z,3.93
2023-01-06T21:54:15.377Z,4.57
2023-01-06T21:56:41.900Z,5.03
2023-01-06T21:59:08.993Z,4.07
2023-01-06T22:01:35.650Z,4.30
2023-01-06T22:04:03.449Z,4.07
2023-01-06T22:06:30.216Z,4.33
2023-01-06T22:08:59.039Z,3.67
2023-01-06T22:11:27.028Z,3.90
2023-01-06T22:13:53.564Z,4.30
2023-01-06T22:16:20.135Z,3.77
2023-01-06T22:18:46.676Z,4.37
2023-01-06T22:21:13.327Z,3.97
2023-01-06T22:23:40.110Z,4.27
2023-01-06T22:26:06.584Z,4.40
2023-01-06T22:28:33.052Z,3.90
2023-01-06T22:30:59.602Z,4.37
2023-01-06T22:33:26.163Z,4.60
2023-01-06T22:35:57.021Z,4.67
2023-01-06T22:38:23.515Z,4.13
2023-01-06T22:40:53.467Z,4.50
2023-01-06T22:43:20.567Z,4.27
2023-01-06T22:45:54.098Z,4.40
2023-01-06T22:48:20.841Z,4.00
2023-01-06T22:50:47.354Z,4.40
2023-01-06T22:53:13.829Z,4.10
2023-01-06T22:55:40.307Z,4.70
2023-01-06T22:58:07.453Z,4.10
2023-01-06T23:00:34.179Z,4.17
2023-01-06T23:03:00.667Z,4.23
2023-01-06T23:05:29.299Z,4.60
2023-01-06T23:07:55.840Z,4.23
2023-01-06T23:10:24.150Z,4.73
2023-01-06T23:12:53.498Z,4.43
2023-01-06T23:15:25.478Z,4.63
2023-01-06T23:17:55.536Z,4.53
2023-01-06T23:20:27.507Z,4.57
2023-01-06T23:22:54.760Z,4.63
2023-01-06T23:25:21.276Z,4.60
2023-01-06T23:27:47.700Z,4.50
2023-01-06T23:30:14.337Z,4.40
2023-01-06T23:32:40.793Z,4.90
2023-01-06T23:35:07.538Z,4.80
2023-01-06T23:37:34.419Z,4.43
2023-01-06T23:40:01.144Z,4.90
2023-01-06T23:42:28.708Z,4.20
2023-01-06T23:44:56.868Z,4.90
2023-01-06T23:47:23.358Z,4.97
2023-01-06T23:49:50.249Z,5.30
2023-01-06T23:52:16.848Z,5.57
2023-01-06T23:54:43.549Z,4.90
2023-01-06T23:57:10.113Z,5.17
2023-01-06T23:59:36.621Z,5.07
